createdAt,value
2019-06-26T15:56:48.947Z,8.87
2019-06-26T15:59:31.181Z,8.17
2019-06-26T16:01:57.132Z,7.40
2019-06-26T16:04:23.760Z,7.97
2019-06-26T16:07:04.234Z,7.67
2019-06-26T16:09:50.614Z,8.00
2019-06-26T16:12:17.250Z,9.70
2019-06-26T16:18:07.303Z,8.07
2019-06-26T16:20:53.557Z,9.00
2019-06-26T16:23:33.488Z,7.40
2019-06-26T16:26:13.554Z,7.50
2019-06-26T16:28:54.272Z,8.07
2019-06-26T16:31:34.045Z,9.40
2019-06-26T16:34:20.257Z,8.43
2019-06-26T16:37:06.532Z,8.33
2019-06-26T16:39:32.951Z,8.90
2019-06-26T16:45:39.718Z,7.63
2019-06-26T16:48:06.389Z,9.50
2019-06-26T16:53:38.707Z,8.33
2019-06-26T16:56:05.111Z,8.23
2019-06-26T16:58:31.559Z,7.53
2019-06-26T17:01:17.676Z,6.87
2019-06-26T17:03:55.218Z,6.23
2019-06-26T17:06:21.879Z,7.57
2019-06-26T17:12:13.057Z,8.53
2019-06-26T17:14:59.281Z,8.03
2019-06-26T17:17:36.555Z,9.10
2019-06-26T17:20:22.774Z,7.67
2019-06-26T17:23:06.251Z,8.07
2019-06-26T17:25:50.873Z,8.23
2019-06-26T17:28:37.222Z,7.17
2019-06-26T17:31:14.515Z,7.67
2019-06-26T17:34:00.861Z,7.00
2019-06-26T17:36:46.989Z,7.63
2019-06-26T17:39:33.374Z,6.93
2019-06-26T17:42:13.451Z,6.70
2019-06-26T17:44:59.691Z,8.53
2019-06-26T17:47:39.256Z,6.97
2019-06-26T17:50:25.538Z,7.70
2019-06-26T17:53:02.959Z,6.57
2019-06-26T17:55:29.576Z,6.90
2019-06-26T17:58:15.877Z,6.87
2019-06-26T18:00:53.255Z,6.00
2019-06-26T18:03:19.595Z,7.43
2019-06-26T18:05:59.460Z,6.37
2019-06-26T18:08:39.226Z,6.17
2019-06-26T18:11:05.906Z,6.30
2019-06-26T18:13:43.403Z,6.37
2019-06-26T18:16:29.598Z,5.77
2019-06-26T18:19:09.270Z,5.40
2019-06-26T18:21:55.670Z,5.37
2019-06-26T18:24:41.918Z,6.00
2019-06-26T18:27:28.054Z,6.80
2019-06-26T18:30:09.260Z,10.77
2019-06-26T18:32:55.536Z,14.43
2019-06-26T18:35:41.786Z,7.13
2019-06-26T18:38:22.219Z,6.97
2019-06-26T18:40:48.554Z,8.00
2019-06-26T18:43:34.875Z,8.40
2019-06-26T18:46:01.254Z,7.40
2019-06-26T18:48:27.719Z,7.37
2019-06-26T18:51:13.992Z,8.23
2019-06-26T18:53:53.797Z,14.27
2019-06-26T18:56:39.387Z,9.53
2019-06-26T18:59:05.715Z,8.53
2019-06-26T19:01:32.282Z,7.90
2019-06-26T19:03:58.720Z,8.30
2019-06-26T19:09:58.509Z,8.77
2019-06-26T19:12:25.168Z,9.50
2019-06-26T19:14:51.714Z,9.63
2019-06-26T19:17:52.988Z,12.37
2019-06-26T19:20:19.609Z,8.53
2019-06-26T19:22:47.616Z,10.47
2019-06-26T19:25:34.142Z,9.47
2019-06-26T19:28:23.102Z,10.50
2019-06-26T19:30:59.377Z,9.07
2019-06-26T19:33:39.018Z,8.37
2019-06-26T19:36:28.579Z,9.17
2019-06-26T19:38:53.528Z,11.33
2019-06-26T19:41:19.892Z,9.25
2019-06-26T19:44:25.905Z,10.73
2019-06-26T19:47:03.603Z,8.50
2019-06-26T19:49:30.106Z,9.37
2019-06-26T19:52:16.433Z,8.60
2019-06-26T19:54:42.915Z,10.70
2019-06-26T19:57:41.723Z,9.00
2019-06-26T20:00:21.749Z,10.60
2019-06-26T20:06:26.302Z,9.23
2019-06-26T20:08:57.277Z,9.43
2019-06-26T20:11:21.032Z,9.13
2019-06-26T20:14:00.603Z,9.60
2019-06-26T20:16:37.653Z,9.03
2019-06-26T20:19:14.758Z,9.13
2019-06-26T20:22:00.999Z,10.03
2019-06-26T20:24:42.752Z,9.83
2019-06-26T20:27:15.620Z,13.07
2019-06-26T20:30:02.311Z,10.43
2019-06-26T20:32:48.562Z,8.93
2019-06-26T20:35:34.700Z,9.30
2019-06-26T20:38:14.438Z,9.67
2019-06-26T20:40:41.078Z,9.37
2019-06-26T20:43:07.514Z,9.20
2019-06-26T20:45:44.920Z,9.70
2019-06-26T20:48:31.139Z,8.43
2019-06-26T20:51:10.669Z,9.00
2019-06-26T20:53:57.014Z,10.00
2019-06-26T20:56:43.300Z,9.87
2019-06-26T20:59:09.603Z,8.73
2019-06-26T21:01:55.774Z,9.53
2019-06-26T21:04:35.570Z,9.17
2019-06-26T21:07:12.602Z,9.43
2019-06-26T21:09:59.116Z,9.00
2019-06-26T21:12:36.273Z,8.77
2019-06-26T21:15:22.612Z,9.67
2019-06-26T21:17:49.104Z,12.63
2019-06-26T21:20:35.426Z,9.70
2019-06-26T21:23:18.694Z,9.23
2019-06-26T21:26:04.087Z,8.37
2019-06-26T21:28:43.706Z,9.87
2019-06-26T21:31:30.033Z,9.17
2019-06-26T21:34:07.215Z,9.13
2019-06-26T21:36:33.534Z,9.23
2019-06-26T21:38:59.801Z,9.20
2019-06-26T21:41:26.404Z,9.27
2019-06-26T21:44:12.537Z,9.63
2019-06-26T21:46:38.933Z,17.60
2019-06-26T21:49:05.320Z,10.80
2019-06-26T21:51:44.721Z,10.93
2019-06-26T21:54:30.987Z,11.43
2019-06-26T21:57:09.349Z,9.07
2019-06-26T21:59:55.662Z,11.00
2019-06-26T22:02:22.129Z,12.40
2019-06-26T22:08:18.612Z,10.67
2019-06-26T22:11:04.923Z,10.37
2019-06-26T22:13:42.401Z,11.37
2019-06-26T22:16:08.798Z,10.20
2019-06-26T22:18:46.330Z,11.07
2019-06-26T22:21:32.558Z,10.73
2019-06-26T22:23:59.084Z,11.30
2019-06-26T22:26:45.419Z,11.00
2019-06-26T22:29:22.653Z,12.20
2019-06-26T22:32:29.263Z,11.17
2019-06-26T22:35:35.431Z,12.10
2019-06-26T22:40:53.819Z,11.13
2019-06-26T22:43:20.290Z,12.40
2019-06-26T22:45:57.570Z,12.73
2019-06-26T22:48:43.716Z,12.53
2019-06-26T22:51:20.870Z,13.10
2019-06-26T22:53:47.342Z,12.10
2019-06-26T22:56:26.832Z,11.13
2019-06-26T22:59:13.094Z,10.73
2019-06-26T23:01:52.695Z,11.33
2019-06-26T23:04:38.840Z,11.07
2019-06-26T23:07:05.451Z,11.17
2019-06-26T23:09:32.006Z,11.50
2019-06-26T23:11:58.522Z,12.33
2019-06-26T23:14:44.770Z,11.07
2019-06-26T23:17:11.246Z,10.50
2019-06-26T23:19:57.667Z,10.07
2019-06-26T23:22:34.453Z,10.33
2019-06-26T23:25:11.950Z,9.20
2019-06-26T23:27:58.145Z,7.80
2019-06-26T23:30:24.497Z,7.07
2019-06-26T23:33:10.745Z,8.07
2019-06-26T23:35:47.903Z,7.17
2019-06-26T23:38:34.147Z,6.73
2019-06-26T23:41:11.319Z,6.67
2019-06-26T23:43:38.023Z,5.97
2019-06-26T23:46:24.251Z,6.37
2019-06-26T23:49:03.710Z,6.57
2019-06-26T23:51:49.835Z,6.17
2019-06-26T23:54:26.999Z,5.97
2019-06-26T23:57:13.208Z,6.10
2019-06-26T23:59:39.615Z,5.23
